LROD - ORADEA

Compiled: 11:33:56 on 21/04/2018

Latest METAR/SPECI Reports

METAR LROD 211130Z 26007KT CAVOK 21/05 Q1021=

Previous reports

METAR LROD 211100Z 22006KT 170V250 CAVOK 21/05 Q1021=
METAR LROD 211030Z 23007KT 180V300 CAVOK 21/05 Q1021=
METAR LROD 211000Z 23008KT 190V250 CAVOK 20/06 Q1022=
METAR LROD 210930Z 22008KT 190V260 CAVOK 20/05 Q1022=

Latest TAF report

TAF LROD 211100Z 2112/2121 23006KT CAVOK=

Valid WARNINGS

No valid warnings for LROD